sensor_id;sensor_type;location;lat;lon;timestamp;P1;durP1;ratioP1;P2;durP2;ratioP2
9310;SDS011;4694;52.464;13.480;2024-03-02T00:01:10;72.32;;;40.97;;
9310;SDS011;4694;52.464;13.480;2024-03-02T00:03:37;73.80;;;40.58;;
9310;SDS011;4694;52.464;13.480;2024-03-02T00:06:04;83.07;;;44.13;;
9310;SDS011;4694;52.464;13.480;2024-03-02T00:08:33;82.07;;;43.60;;
9310;SDS011;4694;52.464;13.480;2024-03-02T00:11:01;81.72;;;47.97;;
9310;SDS011;4694;52.464;13.480;2024-03-02T00:13:30;91.18;;;47.25;;
9310;SDS011;4694;52.464;13.480;2024-03-02T00:15:58;71.40;;;40.03;;
9310;SDS011;4694;52.464;13.480;2024-03-02T00:18:27;73.53;;;42.30;;
9310;SDS011;4694;52.464;13.480;2024-03-02T00:20:58;79.68;;;45.22;;
9310;SDS011;4694;52.464;13.480;2024-03-02T00:23:27;81.35;;;45.85;;
9310;SDS011;4694;52.464;13.480;2024-03-02T00:25:57;75.85;;;42.33;;
9310;SDS011;4694;52.464;13.480;2024-03-02T00:28:25;75.57;;;40.45;;
9310;SDS011;4694;52.464;13.480;2024-03-02T00:31:04;77.57;;;42.75;;
9310;SDS011;4694;52.464;13.480;2024-03-02T00:33:34;75.07;;;40.90;;
9310;SDS011;4694;52.464;13.480;2024-03-02T00:36:02;88.95;;;43.05;;
9310;SDS011;4694;52.464;13.480;2024-03-02T00:38:30;79.03;;;42.97;;
9310;SDS011;4694;52.464;13.480;2024-03-02T00:40:59;78.45;;;43.42;;
9310;SDS011;4694;52.464;13.480;2024-03-02T00:43:41;75.82;;;42.75;;
9310;SDS011;4694;52.464;13.480;2024-03-02T00:46:11;87.15;;;44.85;;
9310;SDS011;4694;52.464;13.480;2024-03-02T00:48:42;72.50;;;41.92;;
9310;SDS011;4694;52.464;13.480;2024-03-02T00:51:17;86.50;;;45.50;;
9310;SDS011;4694;52.464;13.480;2024-03-02T00:53:44;81.10;;;42.47;;
9310;SDS011;4694;52.464;13.480;2024-03-02T00:56:11;78.93;;;44.50;;
9310;SDS011;4694;52.464;13.480;2024-03-02T00:58:39;75.95;;;42.15;;
9310;SDS011;4694;52.464;13.480;2024-03-02T01:01:06;83.25;;;45.63;;
9310;SDS011;4694;52.464;13.480;2024-03-02T01:03:39;77.45;;;42.92;;
9310;SDS011;4694;52.464;13.480;2024-03-02T01:06:07;79.43;;;43.40;;
9310;SDS011;4694;52.464;13.480;2024-03-02T01:08:34;79.10;;;44.22;;
9310;SDS011;4694;52.464;13.480;2024-03-02T01:11:02;75.53;;;43.30;;
9310;SDS011;4694;52.464;13.480;2024-03-02T01:13:31;103.43;;;46.50;;
9310;SDS011;4694;52.464;13.480;2024-03-02T01:16:00;79.88;;;43.22;;
9310;SDS011;4694;52.464;13.480;2024-03-02T01:18:28;74.07;;;41.25;;
9310;SDS011;4694;52.464;13.480;2024-03-02T01:20:57;84.07;;;44.90;;
9310;SDS011;4694;52.464;13.480;2024-03-02T01:23:24;86.05;;;46.53;;
9310;SDS011;4694;52.464;13.480;2024-03-02T01:25:52;87.88;;;49.88;;
9310;SDS011;4694;52.464;13.480;2024-03-02T01:28:20;95.28;;;47.58;;
9310;SDS011;4694;52.464;13.480;2024-03-02T01:30:47;83.13;;;45.22;;
9310;SDS011;4694;52.464;13.480;2024-03-02T01:33:16;89.40;;;49.30;;
9310;SDS011;4694;52.464;13.480;2024-03-02T01:35:46;91.22;;;45.85;;
9310;SDS011;4694;52.464;13.480;2024-03-02T01:38:14;93.85;;;47.97;;
9310;SDS011;4694;52.464;13.480;2024-03-02T01:40:41;93.53;;;50.80;;
9310;SDS011;4694;52.464;13.480;2024-03-02T01:43:10;89.15;;;47.70;;
9310;SDS011;4694;52.464;13.480;2024-03-02T01:45:37;91.75;;;49.45;;
9310;SDS011;4694;52.464;13.480;2024-03-02T01:48:06;92.53;;;51.38;;
9310;SDS011;4694;52.464;13.480;2024-03-02T01:50:34;87.40;;;51.90;;
9310;SDS011;4694;52.464;13.480;2024-03-02T01:53:02;100.07;;;57.80;;
9310;SDS011;4694;52.464;13.480;2024-03-02T01:55:33;90.43;;;52.65;;
9310;SDS011;4694;52.464;13.480;2024-03-02T01:58:02;99.07;;;53.10;;
9310;SDS011;4694;52.464;13.480;2024-03-02T02:00:30;88.60;;;50.05;;
9310;SDS011;4694;52.464;13.480;2024-03-02T02:02:58;108.93;;;61.05;;
9310;SDS011;4694;52.464;13.480;2024-03-02T02:05:27;103.80;;;58.30;;
9310;SDS011;4694;52.464;13.480;2024-03-02T02:07:54;105.50;;;58.05;;
9310;SDS011;4694;52.464;13.480;2024-03-02T02:10:23;93.30;;;55.65;;
9310;SDS011;4694;52.464;13.480;2024-03-02T02:12:55;90.63;;;52.53;;
9310;SDS011;4694;52.464;13.480;2024-03-02T02:15:24;92.55;;;48.58;;
9310;SDS011;4694;52.464;13.480;2024-03-02T02:17:51;86.68;;;47.15;;
9310;SDS011;4694;52.464;13.480;2024-03-02T02:20:20;97.88;;;55.55;;
9310;SDS011;4694;52.464;13.480;2024-03-02T02:22:57;96.78;;;55.25;;
9310;SDS011;4694;52.464;13.480;2024-03-02T02:25:26;90.18;;;52.60;;
9310;SDS011;4694;52.464;13.480;2024-03-02T02:27:53;94.20;;;50.55;;
9310;SDS011;4694;52.464;13.480;2024-03-02T02:30:22;90.53;;;52.25;;
9310;SDS011;4694;52.464;13.480;2024-03-02T02:32:51;88.03;;;50.15;;
9310;SDS011;4694;52.464;13.480;2024-03-02T02:35:20;88.18;;;50.42;;
9310;SDS011;4694;52.464;13.480;2024-03-02T02:37:47;91.47;;;48.65;;
9310;SDS011;4694;52.464;13.480;2024-03-02T02:40:18;90.55;;;50.95;;
9310;SDS011;4694;52.464;13.480;2024-03-02T02:42:45;85.35;;;48.78;;
9310;SDS011;4694;52.464;13.480;2024-03-02T02:45:14;95.43;;;49.65;;
9310;SDS011;4694;52.464;13.480;2024-03-02T02:47:40;99.00;;;48.95;;
9310;SDS011;4694;52.464;13.480;2024-03-02T02:50:07;88.88;;;46.47;;
9310;SDS011;4694;52.464;13.480;2024-03-02T02:52:36;87.53;;;47.45;;
9310;SDS011;4694;52.464;13.480;2024-03-02T02:55:07;98.53;;;50.40;;
9310;SDS011;4694;52.464;13.480;2024-03-02T02:57:36;87.83;;;46.00;;
9310;SDS011;4694;52.464;13.480;2024-03-02T03:00:05;87.90;;;49.90;;
9310;SDS011;4694;52.464;13.480;2024-03-02T03:02:39;86.13;;;44.70;;
9310;SDS011;4694;52.464;13.480;2024-03-02T03:05:07;93.65;;;53.30;;
9310;SDS011;4694;52.464;13.480;2024-03-02T03:07:35;89.68;;;47.60;;
9310;SDS011;4694;52.464;13.480;2024-03-02T03:10:03;86.95;;;45.60;;
9310;SDS011;4694;52.464;13.480;2024-03-02T03:12:31;86.57;;;46.38;;
9310;SDS011;4694;52.464;13.480;2024-03-02T03:15:04;85.78;;;46.20;;
9310;SDS011;4694;52.464;13.480;2024-03-02T03:17:32;88.10;;;46.67;;
9310;SDS011;4694;52.464;13.480;2024-03-02T03:19:59;91.25;;;48.72;;
9310;SDS011;4694;52.464;13.480;2024-03-02T03:22:25;79.82;;;44.50;;
9310;SDS011;4694;52.464;13.480;2024-03-02T03:24:53;78.35;;;42.40;;
9310;SDS011;4694;52.464;13.480;2024-03-02T03:27:21;78.97;;;44.45;;
9310;SDS011;4694;52.464;13.480;2024-03-02T03:29:47;87.85;;;47.70;;
9310;SDS011;4694;52.464;13.480;2024-03-02T03:35:00;87.05;;;46.67;;
9310;SDS011;4694;52.464;13.480;2024-03-02T03:37:27;84.75;;;42.97;;
9310;SDS011;4694;52.464;13.480;2024-03-02T03:39:58;80.10;;;41.72;;
9310;SDS011;4694;52.464;13.480;2024-03-02T03:42:28;83.68;;;45.40;;
9310;SDS011;4694;52.464;13.480;2024-03-02T03:44:58;80.57;;;44.08;;
9310;SDS011;4694;52.464;13.480;2024-03-02T03:47:25;76.95;;;40.78;;
9310;SDS011;4694;52.464;13.480;2024-03-02T03:49:53;78.30;;;43.42;;
9310;SDS011;4694;52.464;13.480;2024-03-02T03:52:20;79.85;;;44.63;;
9310;SDS011;4694;52.464;13.480;2024-03-02T03:54:48;84.88;;;44.83;;
9310;SDS011;4694;52.464;13.480;2024-03-02T03:57:15;78.25;;;42.20;;
9310;SDS011;4694;52.464;13.480;2024-03-02T03:59:43;79.72;;;41.80;;
9310;SDS011;4694;52.464;13.480;2024-03-02T04:02:11;84.30;;;43.28;;
9310;SDS011;4694;52.464;13.480;2024-03-02T04:04:38;81.68;;;43.85;;
9310;SDS011;4694;52.464;13.480;2024-03-02T04:07:07;75.28;;;42.85;;
9310;SDS011;4694;52.464;13.480;2024-03-02T04:09:35;82.68;;;43.72;;
9310;SDS011;4694;52.464;13.480;2024-03-02T04:12:02;73.60;;;41.78;;
9310;SDS011;4694;52.464;13.480;2024-03-02T04:14:30;78.20;;;39.88;;
9310;SDS011;4694;52.464;13.480;2024-03-02T04:16:56;73.40;;;43.38;;
9310;SDS011;4694;52.464;13.480;2024-03-02T04:19:24;76.15;;;41.30;;
9310;SDS011;4694;52.464;13.480;2024-03-02T04:21:52;70.40;;;37.83;;
9310;SDS011;4694;52.464;13.480;2024-03-02T04:24:20;76.07;;;41.20;;
9310;SDS011;4694;52.464;13.480;2024-03-02T04:26:46;74.28;;;41.47;;
9310;SDS011;4694;52.464;13.480;2024-03-02T04:29:14;74.25;;;42.05;;
9310;SDS011;4694;52.464;13.480;2024-03-02T04:31:42;76.13;;;40.03;;
9310;SDS011;4694;52.464;13.480;2024-03-02T04:34:09;74.00;;;39.05;;
9310;SDS011;4694;52.464;13.480;2024-03-02T04:36:36;68.28;;;39.17;;
9310;SDS011;4694;52.464;13.480;2024-03-02T04:39:10;62.13;;;36.00;;
9310;SDS011;4694;52.464;13.480;2024-03-02T04:41:40;64.40;;;35.85;;
9310;SDS011;4694;52.464;13.480;2024-03-02T04:44:08;68.40;;;38.90;;
9310;SDS011;4694;52.464;13.480;2024-03-02T04:46:35;70.78;;;39.78;;
9310;SDS011;4694;52.464;13.480;2024-03-02T04:49:05;68.85;;;39.83;;
9310;SDS011;4694;52.464;13.480;2024-03-02T04:51:32;66.07;;;39.00;;
9310;SDS011;4694;52.464;13.480;2024-03-02T04:53:59;72.47;;;38.25;;
9310;SDS011;4694;52.464;13.480;2024-03-02T04:56:26;74.95;;;40.38;;
9310;SDS011;4694;52.464;13.480;2024-03-02T04:59:06;67.55;;;39.58;;
9310;SDS011;4694;52.464;13.480;2024-03-02T05:01:33;72.78;;;39.67;;
9310;SDS011;4694;52.464;13.480;2024-03-02T05:04:01;73.80;;;39.03;;
9310;SDS011;4694;52.464;13.480;2024-03-02T05:06:31;65.43;;;38.17;;
9310;SDS011;4694;52.464;13.480;2024-03-02T05:08:58;67.72;;;39.17;;
9310;SDS011;4694;52.464;13.480;2024-03-02T05:11:26;73.03;;;40.45;;
9310;SDS011;4694;52.464;13.480;2024-03-02T05:14:15;67.43;;;38.58;;
9310;SDS011;4694;52.464;13.480;2024-03-02T05:16:42;63.83;;;39.35;;
9310;SDS011;4694;52.464;13.480;2024-03-02T05:19:10;66.47;;;37.22;;
9310;SDS011;4694;52.464;13.480;2024-03-02T05:21:38;70.28;;;39.92;;
9310;SDS011;4694;52.464;13.480;2024-03-02T05:24:05;71.93;;;39.13;;
9310;SDS011;4694;52.464;13.480;2024-03-02T05:26:32;72.63;;;39.70;;
9310;SDS011;4694;52.464;13.480;2024-03-02T05:28:59;70.97;;;39.40;;
9310;SDS011;4694;52.464;13.480;2024-03-02T05:31:29;66.93;;;38.72;;
9310;SDS011;4694;52.464;13.480;2024-03-02T05:33:56;65.90;;;36.95;;
9310;SDS011;4694;52.464;13.480;2024-03-02T05:36:23;67.78;;;37.05;;
9310;SDS011;4694;52.464;13.480;2024-03-02T05:38:49;66.90;;;38.65;;
9310;SDS011;4694;52.464;13.480;2024-03-02T05:41:16;72.65;;;39.30;;
9310;SDS011;4694;52.464;13.480;2024-03-02T05:43:43;67.68;;;40.15;;
9310;SDS011;4694;52.464;13.480;2024-03-02T05:46:09;72.30;;;39.17;;
9310;SDS011;4694;52.464;13.480;2024-03-02T05:48:38;78.38;;;39.63;;
9310;SDS011;4694;52.464;13.480;2024-03-02T05:51:04;71.43;;;40.55;;
9310;SDS011;4694;52.464;13.480;2024-03-02T05:53:31;73.13;;;38.92;;
9310;SDS011;4694;52.464;13.480;2024-03-02T05:55:58;69.35;;;38.70;;
9310;SDS011;4694;52.464;13.480;2024-03-02T05:58:25;83.78;;;41.10;;
9310;SDS011;4694;52.464;13.480;2024-03-02T06:01:12;72.15;;;41.25;;
9310;SDS011;4694;52.464;13.480;2024-03-02T06:03:40;73.22;;;42.80;;
9310;SDS011;4694;52.464;13.480;2024-03-02T06:06:07;78.40;;;43.65;;
9310;SDS011;4694;52.464;13.480;2024-03-02T06:08:34;72.82;;;40.47;;
9310;SDS011;4694;52.464;13.480;2024-03-02T06:11:01;76.63;;;40.85;;
9310;SDS011;4694;52.464;13.480;2024-03-02T06:13:28;78.43;;;42.58;;
9310;SDS011;4694;52.464;13.480;2024-03-02T06:15:54;80.90;;;44.00;;
9310;SDS011;4694;52.464;13.480;2024-03-02T06:18:21;72.18;;;39.35;;
9310;SDS011;4694;52.464;13.480;2024-03-02T06:20:52;78.80;;;43.13;;
9310;SDS011;4694;52.464;13.480;2024-03-02T06:23:19;83.28;;;43.13;;
9310;SDS011;4694;52.464;13.480;2024-03-02T06:25:48;75.90;;;39.97;;
9310;SDS011;4694;52.464;13.480;2024-03-02T06:28:20;77.45;;;40.58;;
9310;SDS011;4694;52.464;13.480;2024-03-02T06:30:46;73.00;;;40.80;;
9310;SDS011;4694;52.464;13.480;2024-03-02T06:33:16;79.25;;;42.55;;
9310;SDS011;4694;52.464;13.480;2024-03-02T06:35:44;78.82;;;40.50;;
9310;SDS011;4694;52.464;13.480;2024-03-02T06:38:12;79.30;;;43.40;;
9310;SDS011;4694;52.464;13.480;2024-03-02T06:40:38;76.72;;;43.50;;
9310;SDS011;4694;52.464;13.480;2024-03-02T06:43:05;71.05;;;39.10;;
9310;SDS011;4694;52.464;13.480;2024-03-02T06:45:32;78.30;;;40.92;;
9310;SDS011;4694;52.464;13.480;2024-03-02T06:47:59;76.82;;;44.13;;
9310;SDS011;4694;52.464;13.480;2024-03-02T06:50:26;74.88;;;41.35;;
9310;SDS011;4694;52.464;13.480;2024-03-02T06:52:56;68.72;;;41.47;;
9310;SDS011;4694;52.464;13.480;2024-03-02T06:55:24;87.43;;;43.88;;
9310;SDS011;4694;52.464;13.480;2024-03-02T06:57:51;77.05;;;43.97;;
9310;SDS011;4694;52.464;13.480;2024-03-02T07:00:18;76.68;;;41.67;;
9310;SDS011;4694;52.464;13.480;2024-03-02T07:02:46;73.03;;;42.65;;
9310;SDS011;4694;52.464;13.480;2024-03-02T07:05:13;78.78;;;42.13;;
9310;SDS011;4694;52.464;13.480;2024-03-02T07:07:41;70.35;;;41.08;;
9310;SDS011;4694;52.464;13.480;2024-03-02T07:10:09;86.75;;;44.00;;
9310;SDS011;4694;52.464;13.480;2024-03-02T07:12:40;71.10;;;42.10;;
9310;SDS011;4694;52.464;13.480;2024-03-02T07:15:09;80.57;;;42.75;;
9310;SDS011;4694;52.464;13.480;2024-03-02T07:17:59;73.30;;;40.65;;
9310;SDS011;4694;52.464;13.480;2024-03-02T07:20:34;75.40;;;41.00;;
9310;SDS011;4694;52.464;13.480;2024-03-02T07:23:09;83.82;;;44.95;;
9310;SDS011;4694;52.464;13.480;2024-03-02T07:25:37;79.75;;;42.67;;
9310;SDS011;4694;52.464;13.480;2024-03-02T07:28:06;77.40;;;41.30;;
9310;SDS011;4694;52.464;13.480;2024-03-02T07:30:33;78.57;;;43.05;;
9310;SDS011;4694;52.464;13.480;2024-03-02T07:33:03;75.20;;;40.25;;
9310;SDS011;4694;52.464;13.480;2024-03-02T07:35:31;74.25;;;41.58;;
9310;SDS011;4694;52.464;13.480;2024-03-02T07:37:59;78.47;;;43.63;;
9310;SDS011;4694;52.464;13.480;2024-03-02T07:40:27;78.75;;;41.83;;
9310;SDS011;4694;52.464;13.480;2024-03-02T07:42:56;75.07;;;42.50;;
9310;SDS011;4694;52.464;13.480;2024-03-02T07:45:25;74.38;;;41.40;;
9310;SDS011;4694;52.464;13.480;2024-03-02T07:47:54;77.65;;;40.38;;
9310;SDS011;4694;52.464;13.480;2024-03-02T07:50:22;82.95;;;43.40;;
9310;SDS011;4694;52.464;13.480;2024-03-02T07:52:49;71.13;;;40.95;;
9310;SDS011;4694;52.464;13.480;2024-03-02T07:55:16;76.28;;;41.38;;
9310;SDS011;4694;52.464;13.480;2024-03-02T07:57:43;81.78;;;44.20;;
9310;SDS011;4694;52.464;13.480;2024-03-02T08:00:10;76.57;;;40.25;;
9310;SDS011;4694;52.464;13.480;2024-03-02T08:02:44;80.63;;;42.55;;
9310;SDS011;4694;52.464;13.480;2024-03-02T08:05:15;75.32;;;37.25;;
9310;SDS011;4694;52.464;13.480;2024-03-02T08:07:44;82.78;;;42.60;;
9310;SDS011;4694;52.464;13.480;2024-03-02T08:10:12;72.18;;;40.25;;
9310;SDS011;4694;52.464;13.480;2024-03-02T08:12:39;70.88;;;38.63;;
9310;SDS011;4694;52.464;13.480;2024-03-02T08:15:07;67.13;;;39.22;;
9310;SDS011;4694;52.464;13.480;2024-03-02T08:17:34;77.65;;;38.38;;
9310;SDS011;4694;52.464;13.480;2024-03-02T08:20:03;72.10;;;37.83;;
9310;SDS011;4694;52.464;13.480;2024-03-02T08:22:31;66.53;;;38.65;;
9310;SDS011;4694;52.464;13.480;2024-03-02T08:24:57;71.82;;;34.58;;
9310;SDS011;4694;52.464;13.480;2024-03-02T08:27:24;65.05;;;37.10;;
9310;SDS011;4694;52.464;13.480;2024-03-02T08:29:51;72.22;;;38.95;;
9310;SDS011;4694;52.464;13.480;2024-03-02T08:32:17;63.45;;;36.95;;
9310;SDS011;4694;52.464;13.480;2024-03-02T08:34:44;73.43;;;38.20;;
9310;SDS011;4694;52.464;13.480;2024-03-02T08:37:12;68.82;;;37.10;;
9310;SDS011;4694;52.464;13.480;2024-03-02T08:39:39;66.68;;;37.25;;
9310;SDS011;4694;52.464;13.480;2024-03-02T08:42:06;76.07;;;40.00;;
9310;SDS011;4694;52.464;13.480;2024-03-02T08:44:33;71.85;;;37.92;;
9310;SDS011;4694;52.464;13.480;2024-03-02T08:46:59;70.50;;;38.45;;
9310;SDS011;4694;52.464;13.480;2024-03-02T08:49:26;69.68;;;38.47;;
9310;SDS011;4694;52.464;13.480;2024-03-02T08:51:53;71.18;;;39.50;;
9310;SDS011;4694;52.464;13.480;2024-03-02T08:54:21;68.22;;;37.55;;
9310;SDS011;4694;52.464;13.480;2024-03-02T08:56:48;68.10;;;38.50;;
9310;SDS011;4694;52.464;13.480;2024-03-02T08:59:15;71.22;;;39.22;;
9310;SDS011;4694;52.464;13.480;2024-03-02T09:01:41;67.88;;;37.90;;
9310;SDS011;4694;52.464;13.480;2024-03-02T09:04:08;67.57;;;36.47;;
9310;SDS011;4694;52.464;13.480;2024-03-02T09:06:35;61.47;;;35.83;;
9310;SDS011;4694;52.464;13.480;2024-03-02T09:09:02;65.50;;;36.65;;
9310;SDS011;4694;52.464;13.480;2024-03-02T09:11:30;73.07;;;35.30;;
9310;SDS011;4694;52.464;13.480;2024-03-02T09:13:57;55.50;;;32.47;;
9310;SDS011;4694;52.464;13.480;2024-03-02T09:16:24;63.67;;;36.35;;
9310;SDS011;4694;52.464;13.480;2024-03-02T09:18:55;59.10;;;34.20;;
9310;SDS011;4694;52.464;13.480;2024-03-02T09:21:22;63.85;;;34.88;;
9310;SDS011;4694;52.464;13.480;2024-03-02T09:23:50;55.50;;;32.25;;
9310;SDS011;4694;52.464;13.480;2024-03-02T09:26:17;67.03;;;37.10;;
9310;SDS011;4694;52.464;13.480;2024-03-02T09:28:46;63.92;;;34.42;;
9310;SDS011;4694;52.464;13.480;2024-03-02T09:31:12;59.92;;;31.60;;
9310;SDS011;4694;52.464;13.480;2024-03-02T09:33:39;60.15;;;32.20;;
9310;SDS011;4694;52.464;13.480;2024-03-02T09:36:06;60.05;;;30.80;;
9310;SDS011;4694;52.464;13.480;2024-03-02T09:38:42;52.67;;;30.33;;
9310;SDS011;4694;52.464;13.480;2024-03-02T09:41:09;55.50;;;30.33;;
9310;SDS011;4694;52.464;13.480;2024-03-02T09:43:35;64.22;;;32.03;;
9310;SDS011;4694;52.464;13.480;2024-03-02T09:46:03;56.45;;;30.40;;
9310;SDS011;4694;52.464;13.480;2024-03-02T09:48:31;59.63;;;34.28;;
9310;SDS011;4694;52.464;13.480;2024-03-02T09:50:58;50.45;;;29.60;;
9310;SDS011;4694;52.464;13.480;2024-03-02T09:53:26;51.13;;;30.25;;
9310;SDS011;4694;52.464;13.480;2024-03-02T09:55:57;50.83;;;27.80;;
9310;SDS011;4694;52.464;13.480;2024-03-02T09:58:24;49.35;;;27.83;;
9310;SDS011;4694;52.464;13.480;2024-03-02T10:00:51;49.67;;;26.50;;
9310;SDS011;4694;52.464;13.480;2024-03-02T10:03:19;47.83;;;26.40;;
9310;SDS011;4694;52.464;13.480;2024-03-02T10:05:46;46.00;;;29.27;;
9310;SDS011;4694;52.464;13.480;2024-03-02T10:08:13;44.95;;;26.35;;
9310;SDS011;4694;52.464;13.480;2024-03-02T10:10:40;41.25;;;25.33;;
9310;SDS011;4694;52.464;13.480;2024-03-02T10:13:09;45.35;;;25.85;;
9310;SDS011;4694;52.464;13.480;2024-03-02T10:15:37;47.50;;;27.25;;
9310;SDS011;4694;52.464;13.480;2024-03-02T10:18:05;44.03;;;25.27;;
9310;SDS011;4694;52.464;13.480;2024-03-02T10:20:36;40.90;;;23.17;;
9310;SDS011;4694;52.464;13.480;2024-03-02T10:23:10;39.03;;;23.17;;
9310;SDS011;4694;52.464;13.480;2024-03-02T10:25:37;39.75;;;23.80;;
9310;SDS011;4694;52.464;13.480;2024-03-02T10:28:05;37.95;;;21.60;;
9310;SDS011;4694;52.464;13.480;2024-03-02T10:30:32;35.47;;;22.55;;
9310;SDS011;4694;52.464;13.480;2024-03-02T10:32:59;42.25;;;22.45;;
9310;SDS011;4694;52.464;13.480;2024-03-02T10:35:26;32.33;;;19.80;;
9310;SDS011;4694;52.464;13.480;2024-03-02T10:37:54;30.85;;;19.10;;
9310;SDS011;4694;52.464;13.480;2024-03-02T10:40:21;35.47;;;19.55;;
9310;SDS011;4694;52.464;13.480;2024-03-02T10:42:49;32.88;;;21.05;;
9310;SDS011;4694;52.464;13.480;2024-03-02T10:45:16;34.22;;;19.40;;
9310;SDS011;4694;52.464;13.480;2024-03-02T10:47:45;30.75;;;18.38;;
9310;SDS011;4694;52.464;13.480;2024-03-02T10:50:13;37.05;;;18.20;;
9310;SDS011;4694;52.464;13.480;2024-03-02T10:52:39;33.05;;;20.52;;
9310;SDS011;4694;52.464;13.480;2024-03-02T10:55:09;32.75;;;20.35;;
9310;SDS011;4694;52.464;13.480;2024-03-02T10:57:40;39.08;;;19.92;;
9310;SDS011;4694;52.464;13.480;2024-03-02T11:00:11;40.10;;;21.98;;
9310;SDS011;4694;52.464;13.480;2024-03-02T11:05:08;31.23;;;19.95;;
9310;SDS011;4694;52.464;13.480;2024-03-02T11:07:38;34.55;;;20.20;;
9310;SDS011;4694;52.464;13.480;2024-03-02T11:10:06;34.83;;;21.02;;
9310;SDS011;4694;52.464;13.480;2024-03-02T11:12:38;37.60;;;18.95;;
9310;SDS011;4694;52.464;13.480;2024-03-02T11:15:10;35.10;;;21.98;;
9310;SDS011;4694;52.464;13.480;2024-03-02T11:17:37;35.08;;;20.70;;
9310;SDS011;4694;52.464;13.480;2024-03-02T11:20:06;28.85;;;19.05;;
9310;SDS011;4694;52.464;13.480;2024-03-02T11:22:35;36.08;;;21.90;;
9310;SDS011;4694;52.464;13.480;2024-03-02T11:25:03;30.15;;;18.58;;
9310;SDS011;4694;52.464;13.480;2024-03-02T11:33:24;35.17;;;20.17;;
9310;SDS011;4694;52.464;13.480;2024-03-02T11:35:55;28.88;;;19.33;;
9310;SDS011;4694;52.464;13.480;2024-03-02T11:38:23;34.15;;;20.95;;
9310;SDS011;4694;52.464;13.480;2024-03-02T11:40:55;33.85;;;20.13;;
9310;SDS011;4694;52.464;13.480;2024-03-02T11:43:24;36.92;;;20.70;;
9310;SDS011;4694;52.464;13.480;2024-03-02T11:45:56;31.85;;;19.67;;
9310;SDS011;4694;52.464;13.480;2024-03-02T11:48:23;28.02;;;17.77;;
9310;SDS011;4694;52.464;13.480;2024-03-02T11:50:51;32.33;;;19.45;;
9310;SDS011;4694;52.464;13.480;2024-03-02T11:53:19;29.95;;;18.30;;
9310;SDS011;4694;52.464;13.480;2024-03-02T11:55:47;29.70;;;18.63;;
9310;SDS011;4694;52.464;13.480;2024-03-02T11:58:16;27.10;;;17.45;;
9310;SDS011;4694;52.464;13.480;2024-03-02T12:00:46;27.88;;;20.15;;
9310;SDS011;4694;52.464;13.480;2024-03-02T12:03:13;28.95;;;19.23;;
9310;SDS011;4694;52.464;13.480;2024-03-02T12:05:40;31.48;;;18.48;;
9310;SDS011;4694;52.464;13.480;2024-03-02T12:08:08;29.50;;;18.80;;
9310;SDS011;4694;52.464;13.480;2024-03-02T12:10:37;33.85;;;19.63;;
9310;SDS011;4694;52.464;13.480;2024-03-02T12:13:04;26.85;;;18.80;;
9310;SDS011;4694;52.464;13.480;2024-03-02T12:15:32;27.92;;;18.73;;
9310;SDS011;4694;52.464;13.480;2024-03-02T12:18:03;22.87;;;16.93;;
9310;SDS011;4694;52.464;13.480;2024-03-02T12:20:31;25.83;;;16.58;;
9310;SDS011;4694;52.464;13.480;2024-03-02T12:22:59;22.75;;;17.05;;
9310;SDS011;4694;52.464;13.480;2024-03-02T12:25:27;22.02;;;15.25;;
9310;SDS011;4694;52.464;13.480;2024-03-02T12:27:55;22.65;;;16.63;;
9310;SDS011;4694;52.464;13.480;2024-03-02T12:30:23;23.67;;;17.45;;
9310;SDS011;4694;52.464;13.480;2024-03-02T12:32:50;22.98;;;17.42;;
9310;SDS011;4694;52.464;13.480;2024-03-02T12:35:18;23.98;;;17.00;;
9310;SDS011;4694;52.464;13.480;2024-03-02T12:37:46;22.83;;;16.20;;
9310;SDS011;4694;52.464;13.480;2024-03-02T12:40:14;19.65;;;15.45;;
9310;SDS011;4694;52.464;13.480;2024-03-02T12:42:43;21.40;;;16.83;;
9310;SDS011;4694;52.464;13.480;2024-03-02T12:45:11;25.58;;;19.27;;
9310;SDS011;4694;52.464;13.480;2024-03-02T12:47:39;17.88;;;13.90;;
9310;SDS011;4694;52.464;13.480;2024-03-02T12:50:06;19.90;;;15.25;;
9310;SDS011;4694;52.464;13.480;2024-03-02T12:52:35;19.23;;;15.30;;
9310;SDS011;4694;52.464;13.480;2024-03-02T12:55:02;25.10;;;18.65;;
9310;SDS011;4694;52.464;13.480;2024-03-02T12:57:32;24.48;;;17.30;;
9310;SDS011;4694;52.464;13.480;2024-03-02T13:00:00;24.48;;;18.13;;
9310;SDS011;4694;52.464;13.480;2024-03-02T13:02:33;18.67;;;13.77;;
9310;SDS011;4694;52.464;13.480;2024-03-02T13:05:00;24.67;;;16.83;;
9310;SDS011;4694;52.464;13.480;2024-03-02T13:07:30;28.08;;;17.00;;
9310;SDS011;4694;52.464;13.480;2024-03-02T13:09:59;24.52;;;18.00;;
9310;SDS011;4694;52.464;13.480;2024-03-02T13:12:27;24.77;;;16.73;;
9310;SDS011;4694;52.464;13.480;2024-03-02T13:14:57;25.05;;;17.98;;
9310;SDS011;4694;52.464;13.480;2024-03-02T13:17:24;27.27;;;16.90;;
9310;SDS011;4694;52.464;13.480;2024-03-02T13:19:51;27.38;;;17.48;;
9310;SDS011;4694;52.464;13.480;2024-03-02T13:22:19;24.13;;;16.02;;
9310;SDS011;4694;52.464;13.480;2024-03-02T13:24:45;22.02;;;15.32;;
9310;SDS011;4694;52.464;13.480;2024-03-02T13:27:13;18.98;;;14.65;;
9310;SDS011;4694;52.464;13.480;2024-03-02T13:29:41;20.48;;;15.13;;
9310;SDS011;4694;52.464;13.480;2024-03-02T13:32:07;22.17;;;15.20;;
9310;SDS011;4694;52.464;13.480;2024-03-02T13:34:34;16.35;;;13.55;;
9310;SDS011;4694;52.464;13.480;2024-03-02T13:37:02;19.83;;;16.02;;
9310;SDS011;4694;52.464;13.480;2024-03-02T13:39:30;18.95;;;13.45;;
9310;SDS011;4694;52.464;13.480;2024-03-02T13:41:57;18.38;;;15.02;;
9310;SDS011;4694;52.464;13.480;2024-03-02T13:44:30;20.60;;;15.75;;
9310;SDS011;4694;52.464;13.480;2024-03-02T13:46:57;23.23;;;16.17;;
9310;SDS011;4694;52.464;13.480;2024-03-02T13:49:25;17.83;;;13.57;;
9310;SDS011;4694;52.464;13.480;2024-03-02T13:51:58;21.38;;;15.05;;
9310;SDS011;4694;52.464;13.480;2024-03-02T13:54:25;19.90;;;13.75;;
9310;SDS011;4694;52.464;13.480;2024-03-02T13:56:52;22.65;;;16.63;;
9310;SDS011;4694;52.464;13.480;2024-03-02T13:59:19;20.77;;;15.43;;
9310;SDS011;4694;52.464;13.480;2024-03-02T14:01:47;21.05;;;14.48;;
9310;SDS011;4694;52.464;13.480;2024-03-02T14:04:14;19.33;;;13.00;;
9310;SDS011;4694;52.464;13.480;2024-03-02T14:06:41;17.65;;;13.65;;
9310;SDS011;4694;52.464;13.480;2024-03-02T14:09:09;18.77;;;13.57;;
9310;SDS011;4694;52.464;13.480;2024-03-02T14:11:35;22.30;;;14.90;;
9310;SDS011;4694;52.464;13.480;2024-03-02T14:14:02;18.95;;;14.73;;
9310;SDS011;4694;52.464;13.480;2024-03-02T14:16:28;17.88;;;13.77;;
9310;SDS011;4694;52.464;13.480;2024-03-02T14:18:56;17.83;;;13.38;;
9310;SDS011;4694;52.464;13.480;2024-03-02T14:21:24;21.08;;;13.70;;
9310;SDS011;4694;52.464;13.480;2024-03-02T14:23:51;17.98;;;14.15;;
9310;SDS011;4694;52.464;13.480;2024-03-02T14:26:17;21.33;;;11.85;;
9310;SDS011;4694;52.464;13.480;2024-03-02T14:28:44;13.25;;;10.43;;
9310;SDS011;4694;52.464;13.480;2024-03-02T14:31:11;17.08;;;11.60;;
9310;SDS011;4694;52.464;13.480;2024-03-02T14:33:38;11.65;;;8.80;;
9310;SDS011;4694;52.464;13.480;2024-03-02T14:36:06;13.38;;;10.32;;
9310;SDS011;4694;52.464;13.480;2024-03-02T14:38:33;18.35;;;12.05;;
9310;SDS011;4694;52.464;13.480;2024-03-02T14:40:59;12.75;;;10.02;;
9310;SDS011;4694;52.464;13.480;2024-03-02T14:43:26;16.52;;;10.98;;
9310;SDS011;4694;52.464;13.480;2024-03-02T14:45:53;16.95;;;10.18;;
9310;SDS011;4694;52.464;13.480;2024-03-02T14:48:19;16.20;;;11.10;;
9310;SDS011;4694;52.464;13.480;2024-03-02T14:50:46;17.52;;;11.70;;